Time;durP1;ratioP1;P1;durP2;ratioP2;P2;SDS_P1;SDS_P2;PMS_P1;PMS_P2;Temp;Humidity;BMP_temperature;BMP_pressure;BME280_temperature;BME280_humidity;BME280_pressure;Samples;Min_cycle;Max_cycle;Signal;HPM_P1;HPM_P2
2022/08/26 00:00:40;;;;;;;14.77;6.80;;;;;;;30.26;40.95;101170.41;5014980;28;20129;-62
2022/08/26 00:03:06;;;;;;;14.93;6.95;;;;;;;30.17;41.70;101183.81;5016545;28;20032;-62
2022/08/26 00:05:31;;;;;;;15.73;8.00;;;;;;;30.16;41.39;101176.59;5015885;28;20041;-62
2022/08/26 00:07:57;;;;;;;13.40;6.03;;;;;;;30.13;40.92;101188.13;5014628;28;20064;-62
2022/08/26 00:10:23;;;;;;;13.60;6.25;;;;;;;30.09;41.23;101186.13;4998431;28;20037;-62
2022/08/26 00:12:48;;;;;;;15.68;6.47;;;;;;;30.02;41.52;101191.81;5015928;28;20033;-62
2022/08/26 00:15:17;;;;;;;17.38;6.35;;;;;;;29.98;41.42;101185.94;5014793;28;20038;-62
2022/08/26 00:17:43;;;;;;;11.77;6.28;;;;;;;29.98;41.93;101194.22;5015919;28;20535;-62
2022/08/26 00:20:10;;;;;;;12.20;5.80;;;;;;;29.99;41.57;101192.31;5014682;28;20109;-62
2022/08/26 00:22:35;;;;;;;9.02;5.65;;;;;;;29.96;41.42;101198.31;5014491;28;20119;-62
2022/08/26 00:25:01;;;;;;;16.92;6.63;;;;;;;29.95;41.52;101191.13;5015826;28;20228;-63
2022/08/26 00:27:27;;;;;;;11.70;6.85;;;;;;;29.97;41.44;101205.53;5014496;28;20522;-62
2022/08/26 00:29:52;;;;;;;12.40;5.90;;;;;;;29.93;41.66;101205.19;5015671;28;20401;-63
2022/08/26 00:32:17;;;;;;;10.43;5.68;;;;;;;29.92;42.11;101197.16;5013766;28;20185;-62
2022/08/26 00:34:43;;;;;;;9.30;5.70;;;;;;;29.94;41.64;101206.03;5015615;28;20022;-62
2022/08/26 00:37:09;;;;;;;9.10;5.65;;;;;;;29.95;42.41;101202.19;5015485;28;20029;-62
2022/08/26 00:39:34;;;;;;;11.75;5.63;;;;;;;29.94;41.68;101206.03;5015410;28;20030;-62
2022/08/26 00:41:59;;;;;;;10.27;4.82;;;;;;;29.91;41.96;101204.59;5015331;28;20037;-62
2022/08/26 00:44:25;;;;;;;15.75;6.18;;;;;;;29.93;42.23;101209.88;5014187;28;20124;-62
2022/08/26 00:46:55;;;;;;;7.30;4.35;;;;;;;29.93;42.32;101210.72;5015315;28;20439;-62
2022/08/26 00:49:39;;;;;;;10.20;4.50;;;;;;;29.90;41.97;101215.91;5014049;28;20112;-62
2022/08/26 00:52:08;;;;;;;13.73;4.30;;;;;;;29.96;42.62;101214.91;5014058;28;20018;-62
2022/08/26 00:54:39;;;;;;;7.38;4.28;;;;;;;29.96;42.64;101221.28;4997540;28;20168;-62
2022/08/26 00:57:08;;;;;;;8.05;3.80;;;;;;;29.94;41.91;101211.56;5015095;28;20100;-62
2022/08/26 00:59:34;;;;;;;12.00;4.40;;;;;;;29.97;42.83;101227.66;5013885;28;20026;-62
2022/08/26 01:02:00;;;;;;;12.43;4.78;;;;;;;29.94;42.12;101217.09;5013668;28;20045;-62
2022/08/26 01:04:26;;;;;;;9.38;4.15;;;;;;;29.96;42.21;101225.97;5013756;28;20476;-62
2022/08/26 01:06:52;;;;;;;7.50;4.53;;;;;;;29.94;42.33;101228.97;5013745;28;20487;-62
2022/08/26 01:09:19;;;;;;;10.20;3.65;;;;;;;29.94;42.78;101220.69;5014665;28;20057;-62
2022/08/26 01:11:46;;;;;;;9.35;3.38;;;;;;;29.92;42.85;101219.25;5013717;28;20080;-62
2022/08/26 01:14:12;;;;;;;10.48;3.50;;;;;;;29.96;42.82;101226.81;5013751;28;20017;-62
2022/08/26 01:16:38;;;;;;;7.45;3.65;;;;;;;30.00;42.64;101221.63;4997145;28;20038;-62
2022/08/26 01:19:56;;;;;;;5.40;3.08;;;;;;;30.01;42.27;101226.06;5014735;28;20080;-62
2022/08/26 01:22:44;;;;;;;6.65;2.50;;;;;;;29.96;42.61;101224.03;5011727;28;20037;-62
2022/08/26 01:25:10;;;;;;;6.60;3.15;;;;;;;29.97;42.58;101227.66;5014063;28;20042;-62
2022/08/26 01:27:35;;;;;;;9.90;3.45;;;;;;;29.94;42.30;101225.38;5014599;28;20045;-62
2022/08/26 01:30:03;;;;;;;5.32;3.03;;;;;;;29.94;42.06;101233.66;5013381;28;20077;-62
2022/08/26 01:32:31;;;;;;;8.32;3.00;;;;;;;29.89;43.06;101231.66;5013484;28;20057;-62
2022/08/26 01:34:56;;;;;;;5.68;2.92;;;;;;;29.87;42.67;101227.47;5013271;28;20030;-62
2022/08/26 01:37:25;;;;;;;6.38;2.90;;;;;;;29.84;43.17;101223.25;5013319;28;20092;-62
2022/08/26 01:39:53;;;;;;;5.88;2.78;;;;;;;29.85;43.25;101235.13;5013212;28;20441;-62
2022/08/26 01:42:20;;;;;;;7.30;3.45;;;;;;;29.76;43.15;101220.03;5013040;28;20463;-62
2022/08/26 01:45:04;;;;;;;6.90;3.35;;;;;;;29.74;42.38;101231.31;5013022;28;20479;-62
2022/08/26 01:47:31;;;;;;;9.18;3.42;;;;;;;29.72;42.31;101232.63;5012959;28;20076;-62
2022/08/26 01:49:57;;;;;;;5.88;2.58;;;;;;;29.70;43.44;101248.63;5013050;28;20038;-62
2022/08/26 01:52:25;;;;;;;5.78;2.53;;;;;;;29.67;43.33;101243.59;5013042;28;20025;-62
2022/08/26 01:54:51;;;;;;;6.13;2.97;;;;;;;29.66;43.23;101242.75;5012882;28;20479;-62
2022/08/26 01:57:17;;;;;;;8.50;3.25;;;;;;;29.67;42.90;101240.81;5014360;28;20045;-62
2022/08/26 01:59:43;;;;;;;5.03;2.17;;;;;;;29.62;42.62;101243.47;5012801;28;20399;-62
2022/08/26 02:02:08;;;;;;;4.65;2.22;;;;;;;29.59;43.28;101246.72;4996332;28;20026;-62
2022/08/26 02:04:42;;;;;;;6.55;2.30;;;;;;;29.58;43.30;101242.28;5014078;28;20095;-62
2022/08/26 02:07:08;;;;;;;7.65;2.72;;;;;;;29.59;43.57;101246.72;4996264;28;20033;-62
2022/08/26 02:09:39;;;;;;;5.90;2.53;;;;;;;29.58;42.92;101245.88;4996185;28;20057;-62
2022/08/26 02:12:05;;;;;;;4.93;2.92;;;;;;;29.54;43.29;101244.69;5012947;28;20034;-62
2022/08/26 02:14:37;;;;;;;7.50;2.38;;;;;;;29.52;43.78;101249.63;4996138;28;20025;-61
2022/08/26 02:17:05;;;;;;;9.45;2.58;;;;;;;29.51;43.80;101249.88;5012497;28;20022;-61
2022/08/26 02:19:33;;;;;;;6.40;3.35;;;;;;;29.48;43.68;101255.88;5013810;28;20026;-61
2022/08/26 02:22:04;;;;;;;7.90;2.58;;;;;;;29.41;43.56;101251.31;5012401;28;20080;-61
2022/08/26 02:24:55;;;;;;;11.27;3.42;;;;;;;29.45;42.91;101259.97;5013576;28;20084;-60
2022/08/26 02:27:27;;;;;;;5.40;2.83;;;;;;;29.44;43.78;101261.88;5013901;28;20105;-61
2022/08/26 02:30:07;;;;;;;10.10;2.80;;;;;;;29.41;43.17;101259.63;5012395;28;20061;-61
2022/08/26 02:32:33;;;;;;;9.13;2.88;;;;;;;29.41;42.85;101261.53;5012429;28;20029;-61
2022/08/26 02:34:58;;;;;;;6.85;2.65;;;;;;;29.41;42.75;101264.28;5013378;28;20025;-61
2022/08/26 02:37:28;;;;;;;9.38;2.97;;;;;;;29.42;43.02;101264.06;5013482;28;20116;-61
2022/08/26 02:39:53;;;;;;;5.97;2.60;;;;;;;29.43;42.82;101265.72;5012207;28;20105;-61
2022/08/26 02:42:18;;;;;;;5.32;2.95;;;;;;;29.42;43.64;101258.53;5013411;28;20507;-61
2022/08/26 02:44:44;;;;;;;4.93;2.28;;;;;;;29.43;43.75;101257.44;5012262;28;20045;-61
2022/08/26 02:47:12;;;;;;;6.95;2.08;;;;;;;29.41;43.24;101261.53;5013431;28;20034;-61
2022/08/26 02:49:38;;;;;;;9.68;2.15;;;;;;;29.35;43.59;101254.22;5012195;28;20029;-61
2022/08/26 02:52:04;;;;;;;5.72;2.13;;;;;;;29.35;43.98;101252.28;5012403;28;20022;-61
2022/08/26 02:54:29;;;;;;;4.13;2.75;;;;;;;29.35;43.35;101262.50;5015400;28;20030;-61
2022/08/26 02:56:55;;;;;;;2.33;2.05;;;;;;;29.35;43.84;101252.28;5017377;28;20391;-61
2022/08/26 02:59:20;;;;;;;7.70;2.50;;;;;;;29.34;43.50;101255.31;5016880;28;20458;-61
2022/08/26 03:01:48;;;;;;;9.02;2.28;;;;;;;29.36;43.94;101259.50;5017301;28;20042;-61
2022/08/26 03:04:13;;;;;;;4.90;2.28;;;;;;;29.37;43.09;101255.63;5017516;28;20061;-61
2022/08/26 03:06:38;;;;;;;6.40;2.55;;;;;;;29.38;43.99;101251.81;5017103;28;20057;-61
2022/08/26 03:09:04;;;;;;;5.38;2.20;;;;;;;29.39;43.00;101252.66;5015751;28;20053;-61
2022/08/26 03:11:30;;;;;;;9.60;2.22;;;;;;;29.36;43.21;101253.97;5017130;28;20113;-61
2022/08/26 03:13:56;;;;;;;9.35;2.40;;;;;;;29.33;44.08;101248.94;5017057;28;20034;-61
2022/08/26 03:16:21;;;;;;;8.55;2.30;;;;;;;29.32;44.07;101247.25;5015780;28;20064;-61
2022/08/26 03:18:47;;;;;;;5.28;2.53;;;;;;;29.32;43.87;101247.25;5016990;28;20466;-61
2022/08/26 03:21:16;;;;;;;7.50;2.78;;;;;;;29.31;43.28;101251.09;5016902;28;20037;-61
2022/08/26 03:23:42;;;;;;;5.50;2.70;;;;;;;29.31;43.14;101251.09;5016954;28;20022;-61
2022/08/26 03:26:09;;;;;;;8.55;2.13;;;;;;;29.30;44.14;101252.19;5016836;28;20025;-61
2022/08/26 03:28:35;;;;;;;4.22;2.20;;;;;;;29.30;43.40;101259.63;5015744;28;20495;-61
2022/08/26 03:31:00;;;;;;;5.38;2.03;;;;;;;29.30;43.31;101252.19;5015509;28;20072;-61
2022/08/26 03:33:26;;;;;;;10.95;2.60;;;;;;;29.30;44.16;101252.19;5016742;28;20419;-61
2022/08/26 03:35:52;;;;;;;5.00;2.33;;;;;;;29.30;44.03;101249.44;5016711;28;20022;-61
2022/08/26 03:38:22;;;;;;;4.25;2.17;;;;;;;29.30;43.97;101246.66;5016670;28;20026;-61
2022/08/26 03:40:47;;;;;;;6.13;2.13;;;;;;;29.29;43.56;101252.41;5016475;28;20021;-61
2022/08/26 03:43:15;;;;;;;6.40;1.92;;;;;;;29.29;43.24;101252.41;5016584;28;20084;-61
2022/08/26 03:45:40;;;;;;;6.65;1.80;;;;;;;29.27;43.65;101243.53;5015396;28;20026;-61
2022/08/26 03:48:06;;;;;;;13.18;2.38;;;;;;;29.26;43.89;101252.88;5015521;28;20407;-61
2022/08/26 03:50:32;;;;;;;4.90;1.83;;;;;;;29.21;43.92;101253.59;5016477;28;20494;-61
2022/08/26 03:52:57;;;;;;;8.70;2.22;;;;;;;29.23;44.24;101245.13;5015464;28;20034;-61
2022/08/26 03:55:25;;;;;;;6.32;2.17;;;;;;;29.22;44.39;101247.03;5016266;28;20388;-61
2022/08/26 03:57:51;;;;;;;5.50;1.70;;;;;;;29.21;43.74;101245.31;5016232;28;20030;-61
2022/08/26 04:00:17;;;;;;;5.32;1.73;;;;;;;29.24;43.74;101255.06;5015037;28;20029;-61
2022/08/26 04:02:44;;;;;;;5.68;2.00;;;;;;;29.24;43.09;101253.16;5016272;28;20379;-61
2022/08/26 04:05:12;;;;;;;3.38;2.13;;;;;;;29.23;44.05;101251.47;5013786;28;20045;-61
2022/08/26 04:07:38;;;;;;;13.15;2.22;;;;;;;29.23;43.88;101254.22;5015931;28;20054;-61
2022/08/26 04:10:05;;;;;;;5.07;1.90;;;;;;;29.21;43.72;101256.34;5016183;28;20041;-61
2022/08/26 04:12:30;;;;;;;5.63;2.53;;;;;;;29.21;43.83;101261.03;5015987;28;20479;-61
2022/08/26 04:14:56;;;;;;;4.35;2.10;;;;;;;29.17;43.61;101255.19;4998542;28;20097;-61
2022/08/26 04:17:24;;;;;;;5.10;1.90;;;;;;;29.16;44.23;101253.47;5014721;28;20057;-61
2022/08/26 04:19:52;;;;;;;7.53;1.88;;;;;;;29.13;44.28;101253.97;5016143;28;20037;-61
2022/08/26 04:22:17;;;;;;;3.80;2.03;;;;;;;29.14;43.68;101254.81;5015757;28;20057;-61
2022/08/26 04:24:42;;;;;;;4.85;1.80;;;;;;;29.13;44.54;101248.44;5014529;28;20106;-61
2022/08/26 04:27:09;;;;;;;8.70;2.22;;;;;;;29.11;44.70;101245.09;5014598;28;20428;-61
2022/08/26 04:29:34;;;;;;;6.05;2.38;;;;;;;29.04;44.28;101244.34;5015660;28;20084;-61
2022/08/26 04:32:01;;;;;;;5.57;2.00;;;;;;;29.06;44.14;101253.25;4998023;28;20427;-61
2022/08/26 04:34:27;;;;;;;3.13;1.88;;;;;;;29.02;44.21;101252.03;5015477;28;20064;-61
2022/08/26 04:36:53;;;;;;;6.00;1.75;;;;;;;29.04;44.30;101251.78;5015360;28;20484;-61
2022/08/26 04:39:19;;;;;;;7.93;1.88;;;;;;;29.05;44.40;101257.09;4997801;28;20080;-61
2022/08/26 04:41:46;;;;;;;6.07;1.95;;;;;;;29.03;44.33;101247.38;5013938;28;20443;-61
2022/08/26 04:44:11;;;;;;;2.42;1.52;;;;;;;29.04;43.55;101254.56;5013964;28;20097;-61
2022/08/26 04:46:37;;;;;;;4.25;1.80;;;;;;;29.02;43.91;101252.03;5015156;28;20064;-61
2022/08/26 04:49:04;;;;;;;4.38;1.85;;;;;;;29.01;43.61;101255.06;5014358;28;20061;-61
2022/08/26 04:51:32;;;;;;;4.35;1.92;;;;;;;29.02;43.72;101256.72;5013984;28;20026;-61
2022/08/26 04:53:58;;;;;;;4.78;2.03;;;;;;;29.02;43.80;101251.19;5015212;28;20476;-61
2022/08/26 04:56:29;;;;;;;10.50;2.05;;;;;;;28.98;44.91;101250.84;5013978;28;20026;-61
2022/08/26 04:58:55;;;;;;;6.07;1.50;;;;;;;29.00;44.75;101247.84;5013919;28;20033;-61
2022/08/26 05:01:21;;;;;;;6.47;2.00;;;;;;;29.00;43.78;101250.63;5014963;28;20033;-61
2022/08/26 05:03:47;;;;;;;4.00;1.63;;;;;;;28.96;44.86;101249.41;5015080;28;20109;-61
2022/08/26 05:06:13;;;;;;;3.17;1.90;;;;;;;28.96;44.38;101260.44;5013750;28;20037;-61
2022/08/26 05:08:39;;;;;;;2.47;1.77;;;;;;;28.91;44.30;101254.81;5013695;28;20046;-61
2022/08/26 05:11:05;;;;;;;4.38;2.08;;;;;;;28.89;44.89;101258.63;5013972;28;20080;-61
2022/08/26 05:13:32;;;;;;;5.30;2.10;;;;;;;28.91;45.04;101263.91;4997300;28;20028;-61
2022/08/26 05:16:01;;;;;;;5.68;2.17;;;;;;;28.92;43.97;101262.00;5013637;28;20432;-61
2022/08/26 05:18:29;;;;;;;4.93;1.67;;;;;;;28.91;43.87;101269.44;5013364;28;20121;-61
2022/08/26 05:20:54;;;;;;;3.88;2.13;;;;;;;28.90;43.91;101267.75;5013419;28;20057;-61
2022/08/26 05:23:21;;;;;;;4.82;1.80;;;;;;;28.90;44.32;101262.22;5013467;28;20510;-61
2022/08/26 05:25:48;;;;;;;3.80;1.80;;;;;;;28.87;44.07;101269.06;5013415;28;20018;-61
2022/08/26 05:28:16;;;;;;;7.85;1.67;;;;;;;28.88;43.97;101267.16;5014940;28;20440;-61
2022/08/26 05:30:43;;;;;;;2.95;1.73;;;;;;;28.84;44.59;101266.78;5014533;28;20373;-61
2022/08/26 05:33:09;;;;;;;3.60;1.80;;;;;;;28.83;44.41;101272.56;5014582;28;20093;-61
2022/08/26 05:35:37;;;;;;;3.15;2.38;;;;;;;28.80;45.24;101273.03;5014480;28;20045;-61
2022/08/26 05:38:04;;;;;;;1.75;1.40;;;;;;;28.77;44.41;101271.59;5013551;28;20048;-61
2022/08/26 05:40:33;;;;;;;6.03;1.70;;;;;;;28.82;44.48;101273.63;5014446;28;20084;-55
2022/08/26 05:42:59;;;;;;;4.72;1.30;;;;;;;28.81;44.36;101277.47;5013577;28;20558;-56
2022/08/26 05:45:24;;;;;;;3.38;1.20;;;;;;;28.81;44.97;101277.47;5013007;28;20083;-55
2022/08/26 05:47:50;;;;;;;3.05;1.27;;;;;;;28.79;44.46;101274.94;5014269;28;20032;-56
2022/08/26 05:56:06;;;;;;;5.78;1.50;;;;;;;28.96;44.90;101274.22;4992912;28;20053;-56
2022/08/26 05:58:32;;;;;;;4.68;1.50;;;;;;;29.04;43.94;101285.75;4993319;28;20161;-56
2022/08/26 06:01:13;;;;;;;2.83;1.60;;;;;;;29.11;43.78;101288.41;4994042;28;20041;-57
2022/08/26 06:03:43;;;;;;;2.30;1.30;;;;;;;29.17;44.28;101293.81;4994366;28;20091;-56
2022/08/26 06:06:14;;;;;;;3.13;1.50;;;;;;;29.17;43.93;101299.34;4994610;28;20518;-56
2022/08/26 06:08:40;;;;;;;5.70;2.00;;;;;;;29.12;44.47;101290.91;4994337;28;20431;-61
2022/08/26 06:11:09;;;;;;;4.32;1.42;;;;;;;29.15;44.75;101301.47;4992920;28;20080;-61
2022/08/26 06:13:35;;;;;;;4.20;1.10;;;;;;;29.13;44.72;101309.16;4994467;28;20105;-61
2022/08/26 06:16:03;;;;;;;4.25;1.30;;;;;;;29.14;43.77;101298.97;4994131;28;20069;-61
2022/08/26 06:18:33;;;;;;;3.30;1.40;;;;;;;29.14;43.74;101304.50;4994233;28;20698;-61
2022/08/26 06:21:00;;;;;;;2.10;1.65;;;;;;;29.09;44.31;101305.19;4994189;28;20054;-62
2022/08/26 06:26:14;;;;;;;4.22;1.30;;;;;;;29.13;44.60;101306.41;4994053;28;20032;-61
2022/08/26 06:28:40;;;;;;;3.47;1.30;;;;;;;29.10;44.39;101298.59;4992487;28;20387;-61
2022/08/26 06:31:05;;;;;;;4.80;1.10;;;;;;;29.06;44.20;101302.94;4993992;28;20030;-62
2022/08/26 06:33:31;;;;;;;4.32;1.27;;;;;;;29.05;44.52;101306.75;4992823;28;20113;-61
2022/08/26 06:35:57;;;;;;;6.20;1.10;;;;;;;29.03;44.34;101299.81;4993907;28;20042;-62
2022/08/26 06:38:23;;;;;;;3.05;1.40;;;;;;;29.03;44.64;101303.41;4993868;28;20038;-62
2022/08/26 06:40:50;;;;;;;2.78;0.88;;;;;;;29.04;44.50;101313.34;4993902;28;20117;-61
2022/08/26 06:43:17;;;;;;;1.80;1.00;;;;;;;29.03;44.39;101308.94;4994121;28;20030;-62
2022/08/26 06:45:44;;;;;;;3.75;1.40;;;;;;;29.04;44.77;101313.34;4993857;28;20076;-62
2022/08/26 06:48:12;;;;;;;4.05;1.20;;;;;;;29.05;44.70;101306.75;4992885;28;20101;-62
2022/08/26 06:50:37;;;;;;;5.80;1.52;;;;;;;29.07;43.78;101306.50;4993831;28;20043;-62
2022/08/26 06:53:02;;;;;;;3.58;0.95;;;;;;;29.11;43.91;101311.31;4993820;28;20030;-62
2022/08/26 06:55:28;;;;;;;1.58;1.00;;;;;;;29.09;44.42;101302.41;4993682;28;20419;-61
2022/08/26 06:57:55;;;;;;;5.88;1.33;;;;;;;29.15;44.61;101312.50;4993807;28;20057;-62
2022/08/26 07:00:21;;;;;;;3.47;1.23;;;;;;;29.19;44.30;101307.34;4976285;28;20026;-62
2022/08/26 07:02:46;;;;;;;2.67;0.90;;;;;;;29.29;43.55;101308.47;4993940;28;20435;-61
2022/08/26 07:05:12;;;;;;;1.98;0.77;;;;;;;29.31;44.34;101309.06;4993678;28;20039;-62
2022/08/26 07:07:38;;;;;;;4.65;1.10;;;;;;;29.34;44.16;101305.81;4993716;28;20026;-62
2022/08/26 07:10:04;;;;;;;7.97;1.38;;;;;;;29.37;44.38;101310.00;4992374;28;20080;-63
2022/08/26 07:12:30;;;;;;;3.47;0.98;;;;;;;29.39;44.33;101319.75;4993538;28;20035;-61
2022/08/26 07:14:55;;;;;;;4.13;1.10;;;;;;;29.38;43.58;101307.03;4993629;28;20035;-62
2022/08/26 07:17:20;;;;;;;2.45;0.90;;;;;;;29.36;44.34;101303.69;4993656;28;20045;-61
2022/08/26 07:19:47;;;;;;;4.30;1.08;;;;;;;29.39;44.47;101313.41;4993571;28;20034;-62
2022/08/26 07:22:13;;;;;;;9.77;2.03;;;;;;;29.39;43.65;101319.75;4993441;28;20019;-61
2022/08/26 07:24:42;;;;;;;4.75;1.15;;;;;;;29.36;43.93;101322.16;4993522;28;20042;-61
2022/08/26 07:27:11;;;;;;;11.73;2.10;;;;;;;29.38;44.08;101326.34;4993460;28;20026;-62
2022/08/26 07:29:38;;;;;;;5.35;1.10;;;;;;;29.37;44.46;101321.91;4992321;28;20060;-62
2022/08/26 07:32:03;;;;;;;1.65;1.00;;;;;;;29.35;43.59;101323.22;4993444;28;20054;-62
2022/08/26 07:34:31;;;;;;;5.18;0.80;;;;;;;29.42;43.49;101323.97;4993422;28;20058;-61
2022/08/26 07:36:56;;;;;;;2.92;1.38;;;;;;;29.41;43.63;101323.13;4993439;28;20022;-62
2022/08/26 07:39:22;;;;;;;4.97;0.80;;;;;;;29.41;43.78;101334.16;4993602;28;20494;-62
2022/08/26 07:41:47;;;;;;;4.55;1.17;;;;;;;29.41;43.45;101320.34;4996923;28;20361;-62
2022/08/26 07:44:13;;;;;;;3.95;1.02;;;;;;;29.44;43.70;101319.88;4995765;28;20042;-61
2022/08/26 07:46:39;;;;;;;4.07;1.25;;;;;;;29.48;44.34;101325.75;4996067;28;20105;-62
2022/08/26 07:49:05;;;;;;;3.97;1.25;;;;;;;29.47;44.33;101331.50;4995732;28;20030;-62
2022/08/26 07:51:30;;;;;;;6.03;1.13;;;;;;;29.42;44.19;101330.31;4995762;28;20081;-62
2022/08/26 07:53:56;;;;;;;3.70;1.05;;;;;;;29.35;43.89;101324.06;4995344;28;20045;-61
2022/08/26 07:56:22;;;;;;;5.82;1.20;;;;;;;29.36;43.72;101336.81;4995876;28;20049;-61
2022/08/26 07:58:48;;;;;;;4.22;0.90;;;;;;;29.38;43.68;101342.91;4996767;28;20383;-61
2022/08/26 08:01:14;;;;;;;3.60;1.17;;;;;;;29.38;43.59;101336.56;4995450;28;20104;-62
2022/08/26 08:03:43;;;;;;;7.97;1.23;;;;;;;29.41;44.34;101338.84;4996629;28;20041;-62
2022/08/26 08:06:08;;;;;;;5.95;1.35;;;;;;;29.41;44.26;101331.41;4996652;28;20034;-61
2022/08/26 08:08:34;;;;;;;4.75;1.27;;;;;;;29.37;43.73;101338.47;4996470;28;20026;-62
2022/08/26 08:11:06;;;;;;;5.57;1.05;;;;;;;29.38;44.43;101340.16;4995343;28;20050;-61
2022/08/26 08:13:31;;;;;;;3.23;1.07;;;;;;;29.37;44.36;101340.38;4995537;28;20035;-61
2022/08/26 08:15:56;;;;;;;3.85;1.00;;;;;;;29.39;44.21;101336.31;4995274;28;20041;-61
2022/08/26 08:18:22;;;;;;;2.97;1.48;;;;;;;29.40;44.02;101339.91;4995251;28;20022;-61
2022/08/26 08:20:47;;;;;;;2.90;1.05;;;;;;;29.41;44.26;101336.91;4996352;28;20041;-61
2022/08/26 08:23:14;;;;;;;1.92;0.90;;;;;;;29.43;44.31;101340.28;4996179;28;20022;-62
2022/08/26 08:25:40;;;;;;;3.08;0.80;;;;;;;29.50;43.15;101350.34;4995064;28;20038;-61
2022/08/26 08:28:05;;;;;;;2.83;1.20;;;;;;;29.60;44.14;101347.81;4995091;28;20377;-62
2022/08/26 08:30:31;;;;;;;2.70;1.17;;;;;;;29.69;43.75;101346.38;4996140;28;20057;-62
2022/08/26 08:32:56;;;;;;;5.47;0.82;;;;;;;29.78;43.71;101339.41;4994941;28;20030;-62
2022/08/26 08:35:22;;;;;;;2.55;0.60;;;;;;;29.82;43.15;101343.38;4996133;28;20026;-62
2022/08/26 08:37:53;;;;;;;2.80;1.10;;;;;;;29.87;43.10;101343.50;4996042;28;20064;-61
2022/08/26 08:40:19;;;;;;;2.92;1.25;;;;;;;29.98;43.10;101350.94;4995953;28;20030;-62
2022/08/26 08:42:51;;;;;;;5.50;0.80;;;;;;;30.07;43.25;101346.66;4994698;28;20030;-62
2022/08/26 08:45:30;;;;;;;3.80;0.90;;;;;;;30.10;43.12;101337.06;4995902;28;20372;-62
2022/08/26 08:47:57;;;;;;;2.47;0.90;;;;;;;30.22;43.17;101344.22;4994971;28;20482;-62
2022/08/26 08:51:03;;;;;;;4.15;0.52;;;;;;;30.32;43.04;101347.19;4995834;28;20026;-61
2022/08/26 08:53:38;;;;;;;3.50;0.70;;;;;;;30.41;42.92;101345.75;4973781;28;20066;-61
2022/08/26 08:56:09;;;;;;;3.53;0.88;;;;;;;30.45;42.63;101346.94;4988530;28;20069;-62
2022/08/26 08:58:37;;;;;;;2.30;0.90;;;;;;;30.46;42.73;101348.59;4995649;28;20026;-61
2022/08/26 09:01:05;;;;;;;3.70;0.60;;;;;;;30.52;42.48;101344.84;4995516;28;20535;-62
2022/08/26 09:03:44;;;;;;;1.60;0.60;;;;;;;30.59;42.54;101358.53;4994325;28;20041;-61
2022/08/26 09:06:15;;;;;;;3.90;1.05;;;;;;;30.56;42.50;101354.34;4994319;28;20030;-62
2022/08/26 09:08:42;;;;;;;3.33;0.80;;;;;;;30.53;42.42;101354.00;4994583;28;20480;-62
2022/08/26 09:11:08;;;;;;;3.05;1.58;;;;;;;30.51;42.59;101354.22;4995372;28;20081;-62
2022/08/26 09:13:34;;;;;;;1.63;0.60;;;;;;;30.47;42.50;101355.81;4994130;28;20034;-62
2022/08/26 09:16:12;;;;;;;3.85;0.60;;;;;;;30.42;42.70;101361.25;4994172;28;20030;-62
2022/08/26 09:18:46;;;;;;;1.08;0.65;;;;;;;30.38;42.66;101367.50;4995255;28;20443;-62
2022/08/26 09:21:14;;;;;;;2.53;0.70;;;;;;;30.37;42.56;101361.16;4995065;28;20028;-62
2022/08/26 09:23:41;;;;;;;2.38;0.70;;;;;;;30.39;42.68;101366.44;4994193;28;20052;-62
2022/08/26 09:26:16;;;;;;;3.65;0.60;;;;;;;30.38;42.50;101368.34;4993778;28;20081;-62
2022/08/26 09:28:45;;;;;;;2.75;1.55;;;;;;;30.37;42.61;101371.38;4995045;28;20398;-61
2022/08/26 09:31:19;;;;;;;2.53;1.05;;;;;;;30.35;42.44;101373.50;4993775;28;20037;-62
2022/08/26 09:33:44;;;;;;;6.72;1.05;;;;;;;30.32;42.58;101371.25;4994903;28;20030;-62
2022/08/26 09:36:25;;;;;;;4.72;1.20;;;;;;;30.28;42.35;101372.81;4993580;28;20041;-61
2022/08/26 09:38:51;;;;;;;3.38;0.88;;;;;;;30.29;42.66;101364.25;4994756;28;20022;-61
2022/08/26 09:41:30;;;;;;;3.10;0.60;;;;;;;30.34;42.80;101369.91;4994718;28;20118;-62
2022/08/26 09:44:17;;;;;;;1.67;0.63;;;;;;;30.39;42.54;101381.13;4977568;28;20109;-61
2022/08/26 09:46:53;;;;;;;2.88;0.57;;;;;;;30.38;42.52;101379.41;4977214;28;20034;-62
2022/08/26 09:49:26;;;;;;;1.55;0.60;;;;;;;30.36;42.21;101378.81;4993462;28;20113;-61
2022/08/26 09:52:19;;;;;;;3.60;0.82;;;;;;;30.29;42.35;101377.28;4994617;28;20057;-61
2022/08/26 09:55:02;;;;;;;2.95;0.57;;;;;;;30.23;42.23;101375.50;4994285;28;20046;-62
2022/08/26 09:57:28;;;;;;;;;;;;;;;30.23;42.29;101370.81;4994867;28;20050;-62
2022/08/26 09:59:54;;;;;;;1.60;0.95;;;;;;;30.22;42.45;101374.66;4994431;28;19914;-62
2022/08/26 10:02:31;;;;;;;3.72;0.73;;;;;;;30.19;42.40;101368.75;4994529;28;20037;-62
2022/08/26 10:04:58;;;;;;;4.07;1.00;;;;;;;30.18;42.25;101378.97;4993735;28;20096;-62
2022/08/26 10:07:43;;;;;;;1.95;0.60;;;;;;;30.17;42.32;101366.25;4993170;28;20029;-62
2022/08/26 10:10:20;;;;;;;5.07;0.70;;;;;;;30.12;42.27;101371.69;4994601;28;20506;-61
2022/08/26 10:13:27;;;;;;;6.30;0.80;;;;;;;30.13;42.22;101373.34;4993096;28;20022;-62
2022/08/26 10:16:00;;;;;;;3.78;0.82;;;;;;;30.14;42.14;101361.22;4990306;28;20045;-61
2022/08/26 10:18:38;;;;;;;2.13;0.85;;;;;;;30.14;42.20;101365.91;4994255;28;20510;-61
2022/08/26 10:21:50;;;;;;;4.63;0.75;;;;;;;30.18;41.79;101370.69;4992879;28;20392;-62
2022/08/26 10:24:39;;;;;;;3.65;0.60;;;;;;;30.22;41.97;101359.97;4988807;28;20060;-62
2022/08/26 10:27:43;;;;;;;3.58;1.35;;;;;;;30.25;42.03;101360.34;4992897;28;20034;-62
2022/08/26 10:30:12;;;;;;;4.50;0.88;;;;;;;30.25;41.96;101363.09;4994010;28;20037;-61
2022/08/26 10:32:41;;;;;;;4.07;1.30;;;;;;;30.28;41.88;101365.38;4992703;28;20019;-61
2022/08/26 10:35:09;;;;;;;6.53;0.80;;;;;;;30.32;42.15;101358.25;4992836;28;20030;-62
2022/08/26 10:37:37;;;;;;;1.08;0.40;;;;;;;30.38;42.07;101362.81;4993960;28;20065;-61
2022/08/26 10:40:03;;;;;;;4.20;0.77;;;;;;;30.40;41.85;101360.66;4992816;28;20436;-63
2022/08/26 10:42:36;;;;;;;2.17;0.50;;;;;;;30.44;41.76;101363.75;4994087;28;20065;-62
2022/08/26 10:45:07;;;;;;;3.13;0.45;;;;;;;30.43;41.59;101359.34;4993881;28;20031;-62
2022/08/26 10:47:42;;;;;;;3.72;0.60;;;;;;;30.45;41.60;101368.22;4992617;28;20030;-62
2022/08/26 10:50:08;;;;;;;4.95;1.23;;;;;;;30.44;41.52;101355.47;4992616;28;20034;-61
2022/08/26 10:52:46;;;;;;;6.35;0.77;;;;;;;30.42;41.58;101358.50;4993700;28;20084;-62
2022/08/26 10:55:22;;;;;;;4.22;0.70;;;;;;;30.38;42.02;101351.78;4993698;28;20050;-63
2022/08/26 10:58:18;;;;;;;3.30;1.27;;;;;;;30.41;41.37;101356.81;4993744;28;20030;-62
2022/08/26 11:03:52;;;;;;;1.90;0.60;;;;;;;30.41;41.93;101367.03;4992725;28;20076;-62
2022/08/26 11:06:18;;;;;;;4.95;0.80;;;;;;;30.43;41.37;101378.69;4992546;28;20050;-61
2022/08/26 11:08:55;;;;;;;4.60;0.73;;;;;;;30.39;41.42;101370.06;4993639;28;20393;-61
2022/08/26 11:11:39;;;;;;;4.28;0.68;;;;;;;30.37;41.28;101372.22;4993604;28;20390;-61
2022/08/26 11:14:08;;;;;;;2.83;0.80;;;;;;;30.36;41.43;101376.03;4993621;28;20043;-62
2022/08/26 11:16:42;;;;;;;2.70;0.60;;;;;;;30.35;41.42;101374.34;5012323;28;20037;-62
2022/08/26 11:19:09;;;;;;;2.80;0.70;;;;;;;30.37;41.13;101366.69;4997466;28;20022;-61
2022/08/26 11:21:42;;;;;;;3.78;0.57;;;;;;;30.38;41.34;101371.13;4996102;28;20026;-62
2022/08/26 11:24:08;;;;;;;0.98;0.47;;;;;;;30.38;41.40;101360.06;4997631;28;20503;-61
2022/08/26 11:26:35;;;;;;;1.70;0.50;;;;;;;30.39;41.10;101364.53;4997295;28;20041;-62
2022/08/26 11:29:00;;;;;;;4.00;0.50;;;;;;;30.38;41.16;101365.59;4997331;28;20482;-62
2022/08/26 11:31:25;;;;;;;3.03;0.70;;;;;;;30.40;41.33;101366.19;4997484;28;20045;-62
2022/08/26 11:33:58;;;;;;;4.60;0.30;;;;;;;30.38;41.02;101365.59;4997191;28;20498;-62
2022/08/26 11:36:33;;;;;;;6.32;0.90;;;;;;;30.34;41.14;101364.41;4997540;28;20034;-62
2022/08/26 11:39:00;;;;;;;2.67;0.50;;;;;;;30.32;41.29;101357.44;4997143;28;20022;-62
2022/08/26 11:41:28;;;;;;;4.40;0.35;;;;;;;30.28;41.38;101340.50;4995801;28;20030;-61
2022/08/26 11:43:54;;;;;;;8.70;0.88;;;;;;;30.40;41.18;101352.34;4979677;28;20030;-61